Time;durP1;ratioP1;P1;durP2;ratioP2;P2;SDS_P1;SDS_P2;PMS_P1;PMS_P2;Temp;Humidity;BMP_temperature;BMP_pressure;BME280_temperature;BME280_humidity;BME280_pressure;Samples;Min_cycle;Max_cycle;Signal;HPM_P1;HPM_P2
2022/04/09 00:01:03;;;;;;;18.73;2.00;;;3.80;99.90;;;;;;5136064;27;20081;-78
2022/04/09 00:03:30;;;;;;;28.17;3.53;;;3.90;99.90;;;;;;5102375;27;20047;-78
2022/04/09 00:05:56;;;;;;;19.92;2.10;;;3.80;99.90;;;;;;5135501;27;20091;-78
2022/04/09 00:08:22;;;;;;;20.52;2.28;;;3.80;99.90;;;;;;5102853;27;20134;-77
2022/04/09 00:10:48;;;;;;;17.67;1.73;;;3.80;99.90;;;;;;5154848;27;20110;-79
2022/04/09 00:13:14;;;;;;;29.60;2.53;;;3.70;99.90;;;;;;5136892;27;20541;-79
2022/04/09 00:15:39;;;;;;;21.30;2.17;;;3.80;99.90;;;;;;5119574;27;20084;-80
2022/04/09 00:18:06;;;;;;;16.73;1.92;;;3.70;99.90;;;;;;5136322;27;20054;-80
2022/04/09 00:20:32;;;;;;;21.13;1.60;;;3.70;99.90;;;;;;5136086;27;20051;-77
2022/04/09 00:22:58;;;;;;;17.02;1.42;;;3.70;99.90;;;;;;5154705;27;20352;-78
2022/04/09 00:25:24;;;;;;;12.85;1.75;;;3.70;99.90;;;;;;5119658;27;20390;-78
2022/04/09 00:27:51;;;;;;;10.77;1.50;;;3.70;99.90;;;;;;5137233;27;20117;-79
2022/04/09 00:30:17;;;;;;;14.73;1.90;;;3.50;99.90;;;;;;5120948;27;20050;-79
2022/04/09 00:32:42;;;;;;;18.27;2.00;;;3.50;99.90;;;;;;5155411;27;20081;-80
2022/04/09 00:35:08;;;;;;;18.55;2.15;;;3.50;99.90;;;;;;5137306;27;20042;-79
2022/04/09 00:37:44;;;;;;;18.38;1.88;;;3.50;99.90;;;;;;5119070;27;20049;-79
2022/04/09 00:40:13;;;;;;;14.52;1.60;;;3.50;99.90;;;;;;5136117;27;20134;-78
2022/04/09 00:42:42;;;;;;;10.65;1.67;;;3.50;99.90;;;;;;5135582;27;20057;-78
2022/04/09 00:45:12;;;;;;;18.50;2.08;;;3.40;99.90;;;;;;5135627;27;20398;-79
2022/04/09 00:47:38;;;;;;;19.55;1.50;;;3.30;99.90;;;;;;5135883;27;20034;-79
2022/04/09 00:50:08;;;;;;;24.58;1.55;;;3.40;99.90;;;;;;5118563;27;20450;-79
2022/04/09 00:52:40;;;;;;;16.80;1.85;;;3.30;99.90;;;;;;5154127;27;20069;-78
2022/04/09 00:55:07;;;;;;;12.63;1.77;;;3.50;99.90;;;;;;5135651;27;20047;-78
2022/04/09 00:57:40;;;;;;;16.25;1.45;;;3.40;99.90;;;;;;5135874;27;20039;-77
2022/04/09 01:00:11;;;;;;;13.65;2.17;;;3.60;99.90;;;;;;5153970;27;20133;-77
2022/04/09 01:02:41;;;;;;;11.88;1.65;;;3.60;99.90;;;;;;5135998;27;20038;-77
2022/04/09 01:05:10;;;;;;;14.23;1.25;;;3.70;99.90;;;;;;5119324;27;20123;-78
2022/04/09 01:07:36;;;;;;;13.38;2.20;;;3.70;99.90;;;;;;5136750;27;20092;-78
2022/04/09 01:10:03;;;;;;;16.23;1.60;;;3.70;99.90;;;;;;5154197;27;20042;-76
2022/04/09 01:12:29;;;;;;;15.88;2.53;;;3.70;99.90;;;;;;5119011;27;20050;-78
2022/04/09 01:14:55;;;;;;;14.32;1.70;;;3.70;99.90;;;;;;5119021;27;20394;-79
2022/04/09 01:17:21;;;;;;;20.30;2.58;;;3.80;99.90;;;;;;5155336;27;20042;-78
2022/04/09 01:19:47;;;;;;;11.38;1.20;;;3.80;99.90;;;;;;5122858;27;20104;-77
2022/04/09 01:22:12;;;;;;;21.52;1.83;;;3.70;99.90;;;;;;5158725;27;20088;-79
2022/04/09 01:24:38;;;;;;;12.95;1.50;;;3.60;99.90;;;;;;5121969;27;20045;-77
2022/04/09 01:27:04;;;;;;;14.02;1.45;;;3.60;99.90;;;;;;5087703;27;20062;-77
2022/04/09 01:29:31;;;;;;;17.50;1.45;;;3.70;99.90;;;;;;5122553;27;20058;-79
2022/04/09 01:31:56;;;;;;;7.35;1.27;;;3.60;99.90;;;;;;5157582;27;20082;-82
2022/04/09 01:34:22;;;;;;;18.55;1.77;;;3.60;99.90;;;;;;5158009;27;20046;-79
2022/04/09 01:36:48;;;;;;;12.07;1.33;;;3.60;99.90;;;;;;5138626;27;20484;-78
2022/04/09 01:39:17;;;;;;;12.70;1.00;;;3.60;99.90;;;;;;5157015;27;20078;-77
2022/04/09 01:41:45;;;;;;;13.32;1.00;;;3.60;99.90;;;;;;5139340;27;20050;-79
2022/04/09 01:44:11;;;;;;;15.70;1.08;;;3.60;99.90;;;;;;5122130;27;20050;-79
2022/04/09 01:46:44;;;;;;;10.23;1.20;;;3.60;99.90;;;;;;5157228;27;20413;-80
2022/04/09 01:49:11;;;;;;;15.88;1.67;;;3.60;99.90;;;;;;5138423;27;20494;-77
2022/04/09 01:51:36;;;;;;;14.10;1.40;;;3.60;99.90;;;;;;5157200;27;20057;-77
2022/04/09 01:54:02;;;;;;;16.50;1.83;;;3.50;99.90;;;;;;5157348;27;20051;-77
2022/04/09 01:56:32;;;;;;;18.13;1.45;;;3.60;99.90;;;;;;5138944;27;20042;-78
2022/04/09 01:58:58;;;;;;;13.82;1.35;;;3.60;99.90;;;;;;5138600;27;20047;-78
2022/04/09 02:01:25;;;;;;;13.77;1.25;;;3.60;99.90;;;;;;5138854;27;20169;-77
2022/04/09 02:03:50;;;;;;;9.93;1.05;;;3.60;99.90;;;;;;5157302;27;20498;-79
2022/04/09 02:06:22;;;;;;;12.38;1.10;;;3.70;99.90;;;;;;5158039;27;20042;-79
2022/04/09 02:08:48;;;;;;;10.15;1.45;;;3.80;99.90;;;;;;5138844;27;20118;-80
2022/04/09 02:11:14;;;;;;;10.35;1.20;;;3.80;99.90;;;;;;5139262;27;20039;-77
2022/04/09 02:13:40;;;;;;;10.95;1.63;;;3.70;99.90;;;;;;5139168;27;20046;-77
2022/04/09 02:16:06;;;;;;;11.38;1.98;;;3.70;99.90;;;;;;5121849;27;20066;-81
2022/04/09 02:18:31;;;;;;;16.58;1.23;;;3.70;99.90;;;;;;5139118;27;20070;-78
2022/04/09 02:20:57;;;;;;;15.45;1.40;;;3.60;99.90;;;;;;5139945;27;20043;-79
2022/04/09 02:23:23;;;;;;;12.80;1.13;;;3.60;99.90;;;;;;5157020;27;20066;-77
2022/04/09 02:25:49;;;;;;;16.23;2.15;;;3.60;99.90;;;;;;5104606;27;20394;-78
2022/04/09 02:28:14;;;;;;;8.15;1.30;;;3.50;99.90;;;;;;5156915;27;20059;-78
2022/04/09 02:30:40;;;;;;;12.45;1.35;;;3.40;99.90;;;;;;5157545;27;20054;-78
2022/04/09 02:33:06;;;;;;;8.48;1.35;;;3.40;99.90;;;;;;5139358;27;20049;-79
2022/04/09 02:35:33;;;;;;;14.38;1.58;;;3.40;99.90;;;;;;5138781;27;20047;-79
2022/04/09 02:37:59;;;;;;;7.53;1.10;;;3.40;99.90;;;;;;5157021;27;20130;-79
2022/04/09 02:40:25;;;;;;;10.65;1.00;;;3.40;99.90;;;;;;5121834;27;20078;-79
2022/04/09 02:42:51;;;;;;;13.10;1.20;;;3.30;99.90;;;;;;5137015;27;20066;-74
2022/04/09 02:45:17;;;;;;;13.93;1.10;;;3.40;99.90;;;;;;5120297;27;20038;-73
2022/04/09 02:47:42;;;;;;;8.13;0.70;;;3.40;99.90;;;;;;5156190;27;20043;-74
2022/04/09 02:50:09;;;;;;;11.07;0.98;;;3.50;99.90;;;;;;5155982;27;20043;-73
2022/04/09 02:52:35;;;;;;;11.13;0.63;;;3.60;99.90;;;;;;5156276;27;20047;-74
2022/04/09 02:55:03;;;;;;;11.47;0.80;;;3.50;99.90;;;;;;5155991;27;20284;-74
2022/04/09 02:57:28;;;;;;;6.47;0.63;;;3.50;99.90;;;;;;5155783;27;20463;-74
2022/04/09 02:59:54;;;;;;;9.18;0.90;;;3.50;99.90;;;;;;5138031;27;20038;-74
2022/04/09 03:02:20;;;;;;;7.90;0.88;;;3.40;99.90;;;;;;5156194;27;20047;-75
2022/04/09 03:04:46;;;;;;;15.13;1.40;;;3.40;99.90;;;;;;5137851;27;20039;-74
2022/04/09 03:07:12;;;;;;;8.23;0.90;;;3.40;99.90;;;;;;5119985;27;20073;-74
2022/04/09 03:09:38;;;;;;;10.40;0.88;;;3.40;99.90;;;;;;5119833;27;20135;-73
2022/04/09 03:12:04;;;;;;;8.57;0.82;;;3.30;99.90;;;;;;5103699;27;20058;-73
2022/04/09 03:14:30;;;;;;;9.45;0.70;;;3.30;99.90;;;;;;5137525;27;20133;-72
2022/04/09 03:16:56;;;;;;;7.60;0.63;;;3.30;99.90;;;;;;5136926;27;20045;-76
2022/04/09 03:19:22;;;;;;;11.13;1.40;;;3.30;99.90;;;;;;5119354;27;20051;-74
2022/04/09 03:21:48;;;;;;;8.80;0.70;;;3.40;99.90;;;;;;5155669;27;20486;-73
2022/04/09 03:24:14;;;;;;;8.90;0.63;;;3.40;99.90;;;;;;5137163;27;20088;-74
2022/04/09 03:26:40;;;;;;;13.60;1.55;;;3.50;99.90;;;;;;5155117;27;20055;-73
2022/04/09 03:29:05;;;;;;;9.45;1.50;;;3.60;99.90;;;;;;5136834;27;20047;-75
2022/04/09 03:31:31;;;;;;;15.63;1.38;;;3.60;99.90;;;;;;5136514;27;20054;-75
2022/04/09 03:33:57;;;;;;;18.35;1.33;;;3.50;99.90;;;;;;5137640;27;20079;-75
2022/04/09 03:36:23;;;;;;;8.13;1.52;;;3.40;99.90;;;;;;5136821;27;20065;-75
2022/04/09 03:38:49;;;;;;;8.88;0.80;;;3.40;99.90;;;;;;5155095;27;20042;-76
2022/04/09 03:41:14;;;;;;;7.80;0.60;;;3.30;99.90;;;;;;5135491;27;20050;-75
2022/04/09 03:43:40;;;;;;;10.45;1.08;;;3.20;99.90;;;;;;5118802;27;20467;-74
2022/04/09 03:46:06;;;;;;;13.98;1.10;;;3.10;99.90;;;;;;5155151;27;20058;-74
2022/04/09 03:48:32;;;;;;;10.38;1.17;;;3.00;99.90;;;;;;5154804;27;20043;-74
2022/04/09 03:50:58;;;;;;;9.10;1.30;;;3.00;99.90;;;;;;5119101;27;20039;-74
2022/04/09 03:53:23;;;;;;;11.35;1.42;;;2.90;99.90;;;;;;5138318;27;20050;-74
2022/04/09 03:55:50;;;;;;;12.82;0.90;;;2.90;99.90;;;;;;5120694;27;20223;-73
2022/04/09 03:58:16;;;;;;;9.13;1.38;;;2.90;99.90;;;;;;5120556;27;20133;-74
2022/04/09 04:00:42;;;;;;;9.82;0.93;;;2.90;99.90;;;;;;5140085;27;20058;-74
2022/04/09 04:03:09;;;;;;;14.40;1.63;;;2.90;99.90;;;;;;5138770;27;20050;-74
2022/04/09 04:05:36;;;;;;;;;;;2.80;99.90;;;;;;5139574;27;20051;-74
2022/04/09 04:08:06;;;;;;;8.57;0.80;;;2.80;99.90;;;;;;5138971;27;19954;-74
2022/04/09 04:10:34;;;;;;;10.57;0.80;;;2.70;99.90;;;;;;5156008;27;20039;-74
2022/04/09 04:13:00;;;;;;;6.65;0.75;;;2.60;99.90;;;;;;5119811;27;20051;-73
2022/04/09 04:15:26;;;;;;;9.40;0.87;;;2.60;99.90;;;;;;5136506;27;20041;-74
2022/04/09 04:17:52;;;;;;;6.47;0.77;;;2.60;99.90;;;;;;5136526;27;20445;-75
2022/04/09 04:20:18;;;;;;;8.57;1.10;;;2.50;99.90;;;;;;5119531;27;20193;-75
2022/04/09 04:22:44;;;;;;;9.15;0.77;;;2.50;99.90;;;;;;5102573;27;20073;-76
2022/04/09 04:25:10;;;;;;;8.10;0.90;;;2.50;99.90;;;;;;5119169;27;20042;-74
2022/04/09 04:27:45;;;;;;;10.52;1.13;;;2.50;99.90;;;;;;5136324;27;20051;-74
2022/04/09 04:30:11;;;;;;;10.35;1.48;;;2.40;99.90;;;;;;5155128;27;20049;-74
2022/04/09 04:32:36;;;;;;;6.40;1.10;;;2.40;99.90;;;;;;5119145;27;20370;-75
2022/04/09 04:35:03;;;;;;;8.07;1.10;;;2.40;99.90;;;;;;5136432;27;20058;-74
2022/04/09 04:37:42;;;;;;;11.90;1.57;;;2.40;99.90;;;;;;5136354;27;20053;-75
2022/04/09 04:40:09;;;;;;;13.85;1.70;;;2.30;99.90;;;;;;5136447;27;20732;-75
2022/04/09 04:42:36;;;;;;;16.15;1.10;;;2.30;99.90;;;;;;5119378;27;20054;-75
2022/04/09 04:45:03;;;;;;;8.77;1.33;;;2.20;99.90;;;;;;5136223;27;20046;-75
2022/04/09 04:47:29;;;;;;;13.68;1.58;;;2.20;99.90;;;;;;5136485;27;20035;-74
2022/04/09 04:49:54;;;;;;;10.82;0.90;;;2.10;99.90;;;;;;5136358;27;20065;-76
2022/04/09 04:52:20;;;;;;;10.45;1.17;;;2.20;99.90;;;;;;5120008;27;20050;-76
2022/04/09 04:54:46;;;;;;;14.88;1.80;;;2.20;99.90;;;;;;5159325;27;20043;-75
2022/04/09 04:57:12;;;;;;;11.20;1.60;;;2.20;99.90;;;;;;5123196;27;20071;-75
2022/04/09 04:59:38;;;;;;;12.05;1.35;;;2.30;99.90;;;;;;5140065;27;20091;-75
2022/04/09 05:02:04;;;;;;;20.30;1.50;;;2.40;99.90;;;;;;5160441;27;20389;-74
2022/04/09 05:04:30;;;;;;;13.68;1.40;;;2.50;99.90;;;;;;5141757;27;20135;-74
2022/04/09 05:06:56;;;;;;;8.23;1.08;;;2.60;99.90;;;;;;5124802;27;20391;-75
2022/04/09 05:09:22;;;;;;;14.93;1.17;;;2.70;99.90;;;;;;5142631;27;20060;-75
2022/04/09 05:11:48;;;;;;;16.50;1.70;;;2.70;99.90;;;;;;5143440;27;20095;-74
2022/04/09 05:14:14;;;;;;;11.48;1.10;;;2.90;99.90;;;;;;5144064;27;20401;-75
2022/04/09 05:16:39;;;;;;;7.07;1.10;;;3.00;99.90;;;;;;5161524;27;20054;-76
2022/04/09 05:19:05;;;;;;;12.40;1.30;;;3.10;99.90;;;;;;5125635;27;20042;-75
2022/04/09 05:21:31;;;;;;;10.77;1.60;;;3.30;99.90;;;;;;5161060;27;20050;-73
2022/04/09 05:23:57;;;;;;;14.10;1.20;;;3.40;99.90;;;;;;5142845;27;20099;-73
2022/04/09 05:26:23;;;;;;;11.90;1.13;;;3.50;99.90;;;;;;5143173;27;20043;-75
2022/04/09 05:28:53;;;;;;;10.70;1.23;;;3.40;99.90;;;;;;5125399;27;20386;-74
2022/04/09 05:31:27;;;;;;;10.80;1.77;;;3.40;99.90;;;;;;5143336;27;20467;-75
2022/04/09 05:33:54;;;;;;;7.88;0.80;;;3.40;99.90;;;;;;5159664;27;20130;-74
2022/04/09 05:36:19;;;;;;;12.80;1.02;;;3.30;99.90;;;;;;5140519;27;20065;-74
2022/04/09 05:38:45;;;;;;;11.40;1.30;;;3.30;99.90;;;;;;5140467;27;20039;-75
2022/04/09 05:41:11;;;;;;;8.77;0.90;;;3.30;99.90;;;;;;5122869;27;20095;-74
2022/04/09 05:43:37;;;;;;;8.35;0.80;;;3.40;99.90;;;;;;5123186;27;20475;-75
2022/04/09 05:46:03;;;;;;;9.88;0.88;;;3.40;99.90;;;;;;5139432;27;20096;-75
2022/04/09 05:48:28;;;;;;;10.55;1.33;;;3.60;99.90;;;;;;5139963;27;20038;-75
2022/04/09 05:50:54;;;;;;;9.50;0.90;;;3.60;99.90;;;;;;5140941;27;20053;-76
2022/04/09 05:53:20;;;;;;;10.15;1.10;;;3.70;99.90;;;;;;5125180;27;20190;-75
2022/04/09 05:55:46;;;;;;;10.55;1.08;;;3.90;99.90;;;;;;5141570;27;20104;-76
2022/04/09 05:58:11;;;;;;;9.05;0.77;;;3.90;99.90;;;;;;5141208;27;20463;-75
2022/04/09 06:00:37;;;;;;;9.00;1.20;;;4.00;99.90;;;;;;5159697;27;20149;-76
2022/04/09 06:03:03;;;;;;;12.27;1.00;;;4.10;99.90;;;;;;5122637;27;20069;-75
2022/04/09 06:05:29;;;;;;;14.05;0.93;;;4.30;99.90;;;;;;5121648;27;20039;-74
2022/04/09 06:07:55;;;;;;;8.55;1.10;;;4.40;99.90;;;;;;5157655;27;20173;-75
2022/04/09 06:10:21;;;;;;;11.55;1.00;;;4.50;99.90;;;;;;5158414;27;20046;-74
2022/04/09 06:12:46;;;;;;;19.25;1.20;;;4.60;99.90;;;;;;5157723;27;20102;-74
2022/04/09 06:15:12;;;;;;;13.77;1.00;;;4.60;99.90;;;;;;5158855;27;20043;-76
2022/04/09 06:17:39;;;;;;;15.95;0.95;;;4.60;99.90;;;;;;5140646;27;20038;-75
2022/04/09 06:20:06;;;;;;;12.02;1.00;;;4.60;99.90;;;;;;5139430;27;20050;-73
2022/04/09 06:22:32;;;;;;;11.30;0.88;;;4.60;99.90;;;;;;5157440;27;20078;-75
2022/04/09 06:24:59;;;;;;;8.83;0.83;;;4.70;99.90;;;;;;5123336;27;20134;-75
2022/04/09 06:27:25;;;;;;;20.43;1.47;;;4.90;99.90;;;;;;5123290;27;20346;-75
2022/04/09 06:29:51;;;;;;;23.65;5.43;;;5.00;99.90;;;;;;5123036;27;20312;-75
2022/04/09 06:32:17;;;;;;;17.77;1.40;;;4.90;99.90;;;;;;5138949;27;20043;-74
2022/04/09 06:34:42;;;;;;;18.10;1.60;;;4.90;99.90;;;;;;5123005;27;20061;-76
2022/04/09 06:37:08;;;;;;;12.25;0.90;;;5.00;99.90;;;;;;5139806;27;20370;-76
2022/04/09 06:39:34;;;;;;;13.20;1.10;;;5.00;99.90;;;;;;5121999;27;20043;-74
2022/04/09 06:42:00;;;;;;;9.60;0.95;;;5.10;99.90;;;;;;5123199;27;20043;-75
2022/04/09 06:44:26;;;;;;;11.27;1.20;;;5.20;99.90;;;;;;5158349;27;20043;-75
2022/04/09 06:46:52;;;;;;;16.98;1.35;;;5.30;99.90;;;;;;5139573;27;20123;-76
2022/04/09 06:49:18;;;;;;;11.88;1.10;;;5.30;99.90;;;;;;5121795;27;20042;-75
2022/04/09 06:51:48;;;;;;;17.35;1.60;;;5.40;99.90;;;;;;5104884;27;20047;-77
2022/04/09 06:54:14;;;;;;;18.08;2.15;;;5.50;99.90;;;;;;5105684;27;20062;-75
2022/04/09 06:56:40;;;;;;;6.50;0.90;;;5.60;99.90;;;;;;5122212;27;20093;-74
2022/04/09 06:59:06;;;;;;;16.35;1.63;;;5.80;99.90;;;;;;5138369;27;20047;-76
2022/04/09 07:01:32;;;;;;;16.42;1.52;;;5.90;99.90;;;;;;5157093;27;20054;-77
2022/04/09 07:03:58;;;;;;;13.10;0.90;;;6.00;99.90;;;;;;5122338;27;20043;-74
2022/04/09 07:06:24;;;;;;;11.00;0.95;;;6.10;99.90;;;;;;5157288;27;20043;-75
2022/04/09 07:08:50;;;;;;;9.35;1.00;;;6.30;99.90;;;;;;5104104;27;20071;-78
2022/04/09 07:11:15;;;;;;;14.52;0.90;;;6.50;99.90;;;;;;5121163;27;20055;-75
2022/04/09 07:13:41;;;;;;;16.25;1.00;;;6.60;99.90;;;;;;5121334;27;20051;-76
2022/04/09 07:16:07;;;;;;;7.28;0.75;;;6.70;99.90;;;;;;5157433;27;20042;-75
2022/04/09 07:18:33;;;;;;;15.07;1.42;;;6.70;99.90;;;;;;5105111;27;20043;-79
2022/04/09 07:21:01;;;;;;;11.35;0.70;;;6.60;99.90;;;;;;5157716;27;20042;-75
2022/04/09 07:23:28;;;;;;;12.07;0.98;;;6.50;99.90;;;;;;5121460;27;20043;-75
2022/04/09 07:25:54;;;;;;;16.15;2.28;;;6.50;99.90;;;;;;5105298;27;20119;-75
2022/04/09 07:28:20;;;;;;;8.57;1.30;;;6.60;99.90;;;;;;5156326;27;20472;-76
2022/04/09 07:30:46;;;;;;;15.20;1.50;;;6.70;99.90;;;;;;5121545;27;20046;-76
2022/04/09 07:33:12;;;;;;;19.98;1.52;;;6.80;99.90;;;;;;5138724;27;20091;-76
2022/04/09 07:35:37;;;;;;;11.05;1.33;;;6.90;99.90;;;;;;5104092;27;20039;-76
2022/04/09 07:38:04;;;;;;;14.93;1.35;;;7.20;99.90;;;;;;5121039;27;20114;-75
2022/04/09 07:40:30;;;;;;;13.20;1.10;;;7.20;99.90;;;;;;5121003;27;20133;-76
2022/04/09 07:42:58;;;;;;;11.20;1.10;;;7.30;99.90;;;;;;5156517;27;20134;-75
2022/04/09 07:45:25;;;;;;;12.25;1.05;;;7.30;99.90;;;;;;5157317;27;20082;-75
2022/04/09 07:47:59;;;;;;;15.90;1.33;;;7.30;99.90;;;;;;5156568;27;20070;-74
2022/04/09 07:50:25;;;;;;;13.27;1.48;;;7.20;99.90;;;;;;5137962;27;20047;-74
2022/04/09 07:52:52;;;;;;;11.68;0.93;;;7.20;99.90;;;;;;5138455;27;20084;-75
2022/04/09 07:55:18;;;;;;;14.57;1.38;;;7.20;99.90;;;;;;5120967;27;20050;-74
2022/04/09 07:57:46;;;;;;;10.18;0.88;;;7.20;99.90;;;;;;5138784;27;20043;-76
2022/04/09 08:00:14;;;;;;;10.85;1.10;;;7.20;99.90;;;;;;5139097;27;20090;-76
2022/04/09 08:02:40;;;;;;;13.98;1.05;;;7.10;99.90;;;;;;5156765;27;20064;-76
2022/04/09 08:05:07;;;;;;;12.60;1.15;;;7.10;99.90;;;;;;5121140;27;20525;-75
2022/04/09 08:07:33;;;;;;;9.30;0.90;;;7.20;99.90;;;;;;5121353;27;20047;-75
2022/04/09 08:09:59;;;;;;;11.27;1.02;;;7.30;99.90;;;;;;5086612;27;20086;-79
2022/04/09 08:12:25;;;;;;;5.38;0.75;;;7.50;99.90;;;;;;5137714;27;20074;-76
2022/04/09 08:14:51;;;;;;;12.80;0.93;;;7.60;99.90;;;;;;5121437;27;20099;-75
2022/04/09 08:17:20;;;;;;;6.95;0.68;;;7.60;99.90;;;;;;5138654;27;20039;-74
2022/04/09 08:19:46;;;;;;;10.15;0.90;;;7.70;99.90;;;;;;5138087;27;20050;-76
2022/04/09 08:22:12;;;;;;;7.90;0.60;;;7.70;99.90;;;;;;5123231;27;20046;-74
2022/04/09 08:24:40;;;;;;;7.97;0.95;;;7.60;99.90;;;;;;5139198;27;20564;-75
2022/04/09 08:27:10;;;;;;;13.50;0.95;;;7.60;99.90;;;;;;5137118;27;20047;-75
2022/04/09 08:29:37;;;;;;;10.73;1.55;;;7.90;99.90;;;;;;5138582;27;20051;-75
2022/04/09 08:32:04;;;;;;;13.75;1.00;;;7.90;99.90;;;;;;5155799;27;20397;-75
2022/04/09 08:34:33;;;;;;;11.60;0.90;;;7.90;99.90;;;;;;5157835;27;20431;-74
2022/04/09 08:36:59;;;;;;;10.00;0.90;;;8.10;99.90;;;;;;5139334;27;20051;-76
2022/04/09 08:39:25;;;;;;;10.05;0.73;;;8.10;99.90;;;;;;5139646;27;20081;-75
2022/04/09 08:41:53;;;;;;;14.18;1.52;;;8.10;99.90;;;;;;5156726;27;20043;-76
2022/04/09 08:44:19;;;;;;;6.80;0.80;;;8.10;99.90;;;;;;5137174;27;20050;-76
2022/04/09 08:46:47;;;;;;;13.38;1.45;;;8.20;99.90;;;;;;5137869;27;20047;-74
2022/04/09 08:49:13;;;;;;;13.73;1.45;;;8.20;99.90;;;;;;5120293;27;20039;-78
2022/04/09 08:51:39;;;;;;;14.23;0.80;;;8.50;99.90;;;;;;5155373;27;20054;-78
2022/04/09 08:54:05;;;;;;;11.10;0.80;;;8.50;99.90;;;;;;5137482;27;20045;-75
2022/04/09 08:56:35;;;;;;;10.23;0.70;;;8.50;99.90;;;;;;5158534;27;20124;-78
2022/04/09 08:59:04;;;;;;;7.43;0.98;;;8.80;99.90;;;;;;5120369;27;20512;-77
2022/04/09 09:01:31;;;;;;;6.55;0.60;;;9.00;99.90;;;;;;5119864;27;20183;-74
2022/04/09 09:03:58;;;;;;;5.75;1.38;;;8.70;99.90;;;;;;5155268;27;20578;-76
2022/04/09 09:06:31;;;;;;;6.90;0.50;;;8.30;99.90;;;;;;5136128;27;20498;-77
2022/04/09 09:08:58;;;;;;;9.23;0.80;;;7.90;99.90;;;;;;5136824;27;20046;-74
2022/04/09 09:11:24;;;;;;;;;;;7.60;99.90;;;;;;5155437;27;20051;-75
2022/04/09 09:13:52;;;;;;;6.87;0.80;;;7.50;99.90;;;;;;5117860;27;19919;-75
2022/04/09 09:16:34;;;;;;;9.02;0.50;;;7.30;99.90;;;;;;5135482;27;20125;-74
2022/04/09 09:19:04;;;;;;;7.65;0.50;;;7.00;99.90;;;;;;5154761;27;20042;-75
2022/04/09 09:21:30;;;;;;;9.75;0.50;;;6.80;99.90;;;;;;5154352;27;20139;-76
2022/04/09 09:24:16;;;;;;;9.13;0.52;;;6.90;99.90;;;;;;5154324;27;20110;-75
2022/04/09 09:26:44;;;;;;;6.55;0.50;;;7.20;99.90;;;;;;5134769;27;20043;-76
2022/04/09 09:29:22;;;;;;;6.03;0.60;;;7.30;99.90;;;;;;5117938;27;20506;-73
2022/04/09 09:31:50;;;;;;;7.15;0.50;;;7.50;99.90;;;;;;5117688;27;20443;-74
2022/04/09 09:34:20;;;;;;;4.03;0.50;;;7.70;99.90;;;;;;5119116;27;20082;-75
2022/04/09 09:36:47;;;;;;;6.07;0.70;;;7.90;99.90;;;;;;5153499;27;20559;-76
2022/04/09 09:39:14;;;;;;;;;;;8.10;99.90;;;;;;5121742;27;20454;-75
2022/04/09 09:41:59;;;;;;;;;;;8.30;99.90;;;;;;5139743;27;19923;-75
2022/04/09 09:44:26;;;;;;;10.90;0.45;;;8.60;99.90;;;;;;5157526;27;19945;-75
2022/04/09 09:46:55;;;;;;;8.23;0.40;;;8.80;99.90;;;;;;5157998;27;20101;-75
2022/04/09 09:49:24;;;;;;;5.88;0.68;;;8.80;99.90;;;;;;5139248;27;20122;-75
2022/04/09 09:52:03;;;;;;;9.35;0.47;;;8.70;99.90;;;;;;5138355;27;20086;-75
2022/04/09 09:54:29;;;;;;;7.90;0.60;;;8.70;99.90;;;;;;5157813;27;20054;-74
2022/04/09 09:56:55;;;;;;;13.02;0.60;;;8.80;99.90;;;;;;5121953;27;20047;-75
2022/04/09 09:59:22;;;;;;;9.77;0.60;;;8.60;99.90;;;;;;5122306;27;20062;-76
2022/04/09 10:01:48;;;;;;;6.72;0.43;;;8.60;99.90;;;;;;5139356;27;20128;-76
2022/04/09 10:04:14;;;;;;;8.15;0.70;;;8.80;99.30;;;;;;5123026;27;20043;-75
2022/04/09 10:06:42;;;;;;;7.93;0.40;;;9.20;99.90;;;;;;5142910;27;20344;-77
2022/04/09 10:09:08;;;;;;;4.15;0.50;;;9.70;99.90;;;;;;5123611;27;20469;-76
2022/04/09 10:11:49;;;;;;;8.63;0.50;;;9.70;99.90;;;;;;5158884;27;20478;-78
2022/04/09 10:14:22;;;;;;;7.38;0.68;;;8.20;99.90;;;;;;5139465;27;20160;-76
2022/04/09 10:16:51;;;;;;;11.88;1.27;;;7.90;99.90;;;;;;5122370;27;20042;-76
2022/04/09 10:19:20;;;;;;;14.05;1.85;;;6.80;99.90;;;;;;5157055;27;20046;-77
2022/04/09 10:21:51;;;;;;;10.35;1.25;;;7.00;99.90;;;;;;5121331;27;20042;-77
2022/04/09 10:24:19;;;;;;;11.85;0.95;;;7.10;99.90;;;;;;5121689;27;20047;-76
2022/04/09 10:26:46;;;;;;;9.57;0.98;;;7.50;99.90;;;;;;5137964;27;20061;-75
2022/04/09 10:29:11;;;;;;;13.00;1.08;;;7.40;99.90;;;;;;5120634;27;20397;-75
2022/04/09 10:31:43;;;;;;;10.65;1.13;;;7.70;99.90;;;;;;5121017;27;20133;-76
2022/04/09 10:34:16;;;;;;;12.43;1.10;;;7.70;99.90;;;;;;5104184;27;20059;-75
2022/04/09 10:36:44;;;;;;;9.32;0.70;;;8.00;99.90;;;;;;5156214;27;20078;-76
2022/04/09 10:39:39;;;;;;;7.57;0.73;;;8.20;99.90;;;;;;5156174;27;20117;-75
2022/04/09 10:42:09;;;;;;;7.75;1.02;;;8.60;99.90;;;;;;5138185;27;20087;-75
2022/04/09 10:44:42;;;;;;;13.85;1.27;;;8.70;99.90;;;;;;5120316;27;20062;-76
2022/04/09 10:47:08;;;;;;;9.98;1.00;;;8.40;99.90;;;;;;5156798;27;20050;-75
2022/04/09 10:49:34;;;;;;;16.27;1.65;;;8.30;99.90;;;;;;5136977;27;20501;-75
2022/04/09 10:52:16;;;;;;;15.75;1.70;;;8.10;99.90;;;;;;5120448;27;20062;-76
2022/04/09 10:55:05;;;;;;;9.52;1.17;;;8.30;99.90;;;;;;5137448;27;20050;-76
2022/04/09 10:57:45;;;;;;;14.10;1.25;;;8.40;99.90;;;;;;5119938;27;20110;-77
2022/04/09 11:00:32;;;;;;;6.80;0.90;;;8.50;99.90;;;;;;5155711;27;20060;-75
2022/04/09 11:03:04;;;;;;;;;;;7.10;99.90;;;;;;5155719;27;20510;-75
2022/04/09 11:05:30;;;;;;;5.15;0.40;;;6.60;99.90;;;;;;5138072;27;19919;-78
2022/04/09 11:08:10;;;;;;;4.68;0.40;;;6.20;99.90;;;;;;5136976;27;20047;-76
2022/04/09 11:10:36;;;;;;;9.70;0.95;;;6.00;99.90;;;;;;5137344;27;20050;-76
2022/04/09 11:13:03;;;;;;;10.75;0.90;;;6.00;99.90;;;;;;5120455;27;20043;-77
2022/04/09 11:15:29;;;;;;;;;;;5.80;99.90;;;;;;5137571;27;20070;-74
2022/04/09 11:18:02;;;;;;;6.10;0.57;;;5.90;99.90;;;;;;5136735;27;19964;-75
2022/04/09 11:20:33;;;;;;;6.20;0.57;;;5.80;99.90;;;;;;5137513;27;20078;-77
2022/04/09 11:23:12;;;;;;;4.13;0.63;;;5.70;99.90;;;;;;5119697;27;20479;-77
2022/04/09 11:25:41;;;;;;;4.75;0.50;;;6.00;99.90;;;;;;5155329;27;20046;-77
2022/04/09 11:28:19;;;;;;;10.32;0.95;;;5.70;99.90;;;;;;5136031;27;20070;-75
2022/04/09 11:31:00;;;;;;;6.65;0.70;;;5.50;99.90;;;;;;5119663;27;20053;-77
2022/04/09 11:33:26;;;;;;;7.10;0.60;;;5.50;99.90;;;;;;5136999;27;20052;-78
2022/04/09 11:35:52;;;;;;;10.20;0.90;;;5.60;99.90;;;;;;5136613;27;20047;-76
2022/04/09 11:38:18;;;;;;;6.15;0.60;;;5.70;99.90;;;;;;5136539;27;20070;-76
2022/04/09 11:40:47;;;;;;;5.75;0.50;;;5.80;99.90;;;;;;5155115;27;20046;-75
2022/04/09 11:43:17;;;;;;;9.65;0.90;;;6.30;99.90;;;;;;5136269;27;20096;-76
2022/04/09 11:45:44;;;;;;;12.38;0.93;;;6.40;99.90;;;;;;5137309;27;20074;-75
2022/04/09 11:48:20;;;;;;;3.45;0.50;;;6.80;99.90;;;;;;5155062;27;20431;-76
2022/04/09 11:50:48;;;;;;;5.90;0.40;;;6.90;99.90;;;;;;5154951;27;20039;-76
2022/04/09 11:53:19;;;;;;;5.43;0.38;;;6.40;99.90;;;;;;5155206;27;20473;-76
2022/04/09 11:55:46;;;;;;;5.22;0.70;;;6.20;99.90;;;;;;5154640;27;20095;-77
2022/04/09 11:58:16;;;;;;;7.00;0.60;;;6.10;99.90;;;;;;5118936;27;20082;-76
2022/04/09 12:00:45;;;;;;;5.68;0.40;;;6.20;99.90;;;;;;5154446;27;20098;-77
2022/04/09 12:03:12;;;;;;;9.85;0.75;;;6.30;99.90;;;;;;5135106;27;20051;-76
2022/04/09 12:05:43;;;;;;;4.45;0.45;;;6.50;99.90;;;;;;5119124;27;20046;-76
2022/04/09 12:08:16;;;;;;;3.60;0.30;;;6.50;99.90;;;;;;5135941;27;20161;-76
2022/04/09 12:11:02;;;;;;;3.83;0.40;;;6.40;99.90;;;;;;5154532;27;20126;-74
2022/04/09 12:13:35;;;;;;;3.73;0.30;;;6.40;99.90;;;;;;5136672;27;20039;-76
2022/04/09 12:16:08;;;;;;;3.42;0.30;;;6.50;99.90;;;;;;5119314;27;20050;-75
2022/04/09 12:18:36;;;;;;;4.70;0.63;;;6.50;99.90;;;;;;5154148;27;20049;-74
2022/04/09 12:21:25;;;;;;;4.78;0.50;;;6.50;99.90;;;;;;5136581;27;20463;-75
2022/04/09 12:24:05;;;;;;;9.30;0.30;;;6.60;99.90;;;;;;5136294;27;20427;-75
2022/04/09 12:26:33;;;;;;;2.90;0.20;;;6.70;99.90;;;;;;5136346;27;20447;-76
2022/04/09 12:29:08;;;;;;;6.25;0.57;;;6.70;99.90;;;;;;5118299;27;20107;-76
2022/04/09 12:31:46;;;;;;;6.32;0.68;;;6.60;99.90;;;;;;5135982;27;20050;-74
2022/04/09 12:34:11;;;;;;;7.72;0.60;;;6.80;99.90;;;;;;5153842;27;20525;-75
2022/04/09 12:36:38;;;;;;;6.22;0.52;;;7.00;99.90;;;;;;5153661;27;20080;-75
2022/04/09 12:39:24;;;;;;;7.07;0.63;;;7.20;99.90;;;;;;5118714;27;20054;-76
2022/04/09 12:41:50;;;;;;;8.13;0.95;;;7.40;99.90;;;;;;5135496;27;20432;-75
2022/04/09 12:44:28;;;;;;;5.07;0.30;;;6.20;99.90;;;;;;5154109;27;20039;-77
2022/04/09 12:46:54;;;;;;;4.43;0.20;;;5.60;99.90;;;;;;5135515;27;20038;-78
2022/04/09 12:49:30;;;;;;;3.20;0.20;;;5.10;99.90;;;;;;5153804;27;20146;-77
2022/04/09 12:51:56;;;;;;;0.85;0.20;;;4.60;99.90;;;;;;5135562;27;20051;-77
2022/04/09 12:54:22;;;;;;;3.95;0.40;;;4.60;99.90;;;;;;5102005;27;20077;-75
2022/04/09 12:56:48;;;;;;;4.18;0.28;;;4.60;99.90;;;;;;5153916;27;20050;-74